F/V Stereden Ar Moor — FZZX — position and weather

sailwx.info

Track history (hours):
 
Tides and Currents Weather Stations Pressure Air Temp Water Temp Dewpoint Dewpoint Depression Visibility Wind Speed Wind Dir Waves Ship Positions

F/V Stereden Ar Moor

Last reported at 2018-Jun-20 02:33 UTC. Time now 2018-Jun-20 05:51 UTC.
Position N 47°49' W 004°24'.

Type: Fishing. MMSI: 228167900.

Date/timePositionNaut miles runAvg speedWind from/ knotsBaromVisibWave heightAir tempDewpointWater temp
2018-Jun-20 02:33N 47°49' W 004°24'8 9.0
2018-Jun-20 01:40N 47°56' W 004°27'4 9.5
2018-Jun-20 01:17N 47°58' W 004°33'8 9.3
2018-Jun-20 00:27N 48°01' W 004°43'2 4.5
2018-Jun-20 00:00N 48°02' W 004°46'3 5.6
2018-Jun-19 23:25N 47°59' W 004°43'1 2.9
2018-Jun-19 23:00N 48°00' W 004°44'2 3.6
2018-Jun-19 22:26N 48°01' W 004°41'1 2.7
2018-Jun-19 21:58N 47°60' W 004°40'5 5.0
2018-Jun-19 21:02N 47°59' W 004°33'1 8.3
2018-Jun-19 20:58N 47°59' W 004°32'12 8.8
2018-Jun-19 19:38N 47°49' W 004°24'0 0.0
2018-Jun-19 01:48N 47°49' W 004°24'5 9.4
2018-Jun-19 01:18N 47°53' W 004°27'5 9.8
2018-Jun-19 00:45N 47°57' W 004°31'3 8.1
2018-Jun-19 00:20N 47°59' W 004°36'1 2.6
2018-Jun-18 23:59N 47°58' W 004°37'1 1.2
2018-Jun-18 22:58N 47°59' W 004°38'1 1.2
2018-Jun-18 21:57N 47°60' W 004°36'2 4.8
2018-Jun-18 21:28N 47°58' W 004°33'1 1.9
2018-Jun-18 20:53N 47°59' W 004°31'11 0.7
2018-Jun-18 03:53N 47°49' W 004°24'7 7.8
2018-Jun-18 02:58N 47°56' W 004°26'6 6.5
2018-Jun-18 02:04N 47°59' W 004°33'1 9.1
2018-Jun-18 01:58N 47°59' W 004°34'4 8.9
2018-Jun-18 01:31N 47°59' W 004°40'4 8.5
2018-Jun-18 01:01N 48°00' W 004°47'1 2.2
2018-Jun-18 00:31N 48°00' W 004°48'1 2.6
2018-Jun-18 00:01N 47°59' W 004°50'4 8.9
2018-Jun-17 23:30N 47°58' W 004°44'9 9.0
2018-Jun-17 22:33N 47°59' W 004°31'1 1.2
2018-Jun-17 21:53N 47°58' W 004°30'3 3.8
2018-Jun-17 20:58N 47°55' W 004°27'  
2018-Jun-15 01:58N 47°49' W 004°24'2 2.1
2018-Jun-15 00:58N 47°47' W 004°23'3 2.0
2018-Jun-14 23:38N 47°49' W 004°24'3 4.3
2018-Jun-14 22:58N 47°52' W 004°23'9 7.3
2018-Jun-14 21:43N 47°59' W 004°32'6 6.6
2018-Jun-14 20:53N 47°54' W 004°27'7 0.3
2018-Jun-14 01:48N 47°49' W 004°23'7 8.9
2018-Jun-14 00:58N 47°55' W 004°29'2 3.4
2018-Jun-14 00:21N 47°56' W 004°31'1 1.7
2018-Jun-13 23:58N 47°56' W 004°30'4 3.7
2018-Jun-13 22:58N 47°54' W 004°25'1 1.2
2018-Jun-13 21:58N 47°53' W 004°24'1 1.4
2018-Jun-13 20:59N 47°52' W 004°23'2 1.8
2018-Jun-13 19:58N 47°51' W 004°24'2 1.3
2018-Jun-13 18:38N 47°49' W 004°23'0 0.0
2018-Jun-13 03:33N 47°49' W 004°23'0 0.1
2018-Jun-13 02:48N 47°49' W 004°23'2 1.0
2018-Jun-13 00:48N 47°51' W 004°24'4 4.2
2018-Jun-12 23:48N 47°55' W 004°24'0 0.3
2018-Jun-12 22:59N 47°55' W 004°24'1 0.8
2018-Jun-12 21:58N 47°55' W 004°25'5 5.2
2018-Jun-12 20:58N 47°59' W 004°31'8 8.2
2018-Jun-12 19:58N 47°52' W 004°24'3 2.7
2018-Jun-12 18:48N 47°49' W 004°23'1 0.0
2018-Jun-12 01:48N 47°49' W 004°24'9 9.5
2018-Jun-12 00:48N 47°57' W 004°28'3 5.1
2018-Jun-12 00:17N 47°59' W 004°31'7 5.0
2018-Jun-11 22:58N 47°55' W 004°24'0 0.2
2018-Jun-11 21:58N 47°55' W 004°24'4 3.8
2018-Jun-11 20:58N 47°51' W 004°24'2 2.0
2018-Jun-11 19:58N 47°49' W 004°24'1 0.0
2018-Jun-11 01:33N 47°49' W 004°23'2 1.2
2018-Jun-10 23:58N 47°51' W 004°23'2 1.8
2018-Jun-10 22:53N 47°53' W 004°24'2 1.8
2018-Jun-10 21:58N 47°51' W 004°23'1 0.7
2018-Jun-10 20:53N 47°51' W 004°24'  
Track history (hours):
 
Tides and Currents Weather Stations Pressure Air Temp Water Temp Dewpoint Dewpoint Depression Visibility Wind Speed Wind Dir Waves Ship Positions

F/V Stereden Ar Moor

Last reported at 2018-Jun-20 02:33 UTC. Time now 2018-Jun-20 05:51 UTC.
Position N 47°49' W 004°24'.

Type: Fishing. MMSI: 228167900.

Date/timePositionNaut miles runAvg speedWind from/ knotsBaromVisibWave heightAir tempDewpointWater temp
2018-Jun-20 02:33N 47°49' W 004°24'8 9.0
2018-Jun-20 01:40N 47°56' W 004°27'4 9.5
2018-Jun-20 01:17N 47°58' W 004°33'8 9.3
2018-Jun-20 00:27N 48°01' W 004°43'2 4.5
2018-Jun-20 00:00N 48°02' W 004°46'3 5.6
2018-Jun-19 23:25N 47°59' W 004°43'1 2.9
2018-Jun-19 23:00N 48°00' W 004°44'2 3.6
2018-Jun-19 22:26N 48°01' W 004°41'1 2.7
2018-Jun-19 21:58N 47°60' W 004°40'5 5.0
2018-Jun-19 21:02N 47°59' W 004°33'1 8.3
2018-Jun-19 20:58N 47°59' W 004°32'12 8.8
2018-Jun-19 19:38N 47°49' W 004°24'0 0.0
2018-Jun-19 01:48N 47°49' W 004°24'5 9.4
2018-Jun-19 01:18N 47°53' W 004°27'5 9.8
2018-Jun-19 00:45N 47°57' W 004°31'3 8.1
2018-Jun-19 00:20N 47°59' W 004°36'1 2.6
2018-Jun-18 23:59N 47°58' W 004°37'1 1.2
2018-Jun-18 22:58N 47°59' W 004°38'1 1.2
2018-Jun-18 21:57N 47°60' W 004°36'2 4.8
2018-Jun-18 21:28N 47°58' W 004°33'1 1.9
2018-Jun-18 20:53N 47°59' W 004°31'11 0.7
2018-Jun-18 03:53N 47°49' W 004°24'7 7.8
2018-Jun-18 02:58N 47°56' W 004°26'6 6.5
2018-Jun-18 02:04N 47°59' W 004°33'1 9.1
2018-Jun-18 01:58N 47°59' W 004°34'4 8.9
2018-Jun-18 01:31N 47°59' W 004°40'4 8.5
2018-Jun-18 01:01N 48°00' W 004°47'1 2.2
2018-Jun-18 00:31N 48°00' W 004°48'1 2.6
2018-Jun-18 00:01N 47°59' W 004°50'4 8.9
2018-Jun-17 23:30N 47°58' W 004°44'9 9.0
2018-Jun-17 22:33N 47°59' W 004°31'1 1.2
2018-Jun-17 21:53N 47°58' W 004°30'3 3.8
2018-Jun-17 20:58N 47°55' W 004°27'  
2018-Jun-15 01:58N 47°49' W 004°24'2 2.1
2018-Jun-15 00:58N 47°47' W 004°23'3 2.0
2018-Jun-14 23:38N 47°49' W 004°24'3 4.3
2018-Jun-14 22:58N 47°52' W 004°23'9 7.3
2018-Jun-14 21:43N 47°59' W 004°32'6 6.6
2018-Jun-14 20:53N 47°54' W 004°27'7 0.3
2018-Jun-14 01:48N 47°49' W 004°23'7 8.9
2018-Jun-14 00:58N 47°55' W 004°29'2 3.4
2018-Jun-14 00:21N 47°56' W 004°31'1 1.7
2018-Jun-13 23:58N 47°56' W 004°30'4 3.7
2018-Jun-13 22:58N 47°54' W 004°25'1 1.2
2018-Jun-13 21:58N 47°53' W 004°24'1 1.4
2018-Jun-13 20:59N 47°52' W 004°23'2 1.8
2018-Jun-13 19:58N 47°51' W 004°24'2 1.3
2018-Jun-13 18:38N 47°49' W 004°23'0 0.0
2018-Jun-13 03:33N 47°49' W 004°23'0 0.1
2018-Jun-13 02:48N 47°49' W 004°23'2 1.0
2018-Jun-13 00:48N 47°51' W 004°24'4 4.2
2018-Jun-12 23:48N 47°55' W 004°24'0 0.3
2018-Jun-12 22:59N 47°55' W 004°24'1 0.8
2018-Jun-12 21:58N 47°55' W 004°25'5 5.2
2018-Jun-12 20:58N 47°59' W 004°31'8 8.2
2018-Jun-12 19:58N 47°52' W 004°24'3 2.7
2018-Jun-12 18:48N 47°49' W 004°23'1 0.0
2018-Jun-12 01:48N 47°49' W 004°24'9 9.5
2018-Jun-12 00:48N 47°57' W 004°28'3 5.1
2018-Jun-12 00:17N 47°59' W 004°31'7 5.0
2018-Jun-11 22:58N 47°55' W 004°24'0 0.2
2018-Jun-11 21:58N 47°55' W 004°24'4 3.8
2018-Jun-11 20:58N 47°51' W 004°24'2 2.0
2018-Jun-11 19:58N 47°49' W 004°24'1 0.0
2018-Jun-11 01:33N 47°49' W 004°23'2 1.2
2018-Jun-10 23:58N 47°51' W 004°23'2 1.8
2018-Jun-10 22:53N 47°53' W 004°24'2 1.8
2018-Jun-10 21:58N 47°51' W 004°23'1 0.7
2018-Jun-10 20:53N 47°51' W 004°24'  

Dump ship's entire track history